Time;durP1;ratioP1;P1;durP2;ratioP2;P2;SDS_P1;SDS_P2;PMS_P1;PMS_P2;Temp;Humidity;BMP_temperature;BMP_pressure;BME280_temperature;BME280_humidity;BME280_pressure;Samples;Min_cycle;Max_cycle;Signal;HPM_P1;HPM_P2
2022/01/16 00:01:33;;;;;;;;;;;2.90;91.70;;;;;;4979182;28;19920;-89
2022/01/16 00:04:06;;;;;;;;;;;2.90;91.80;;;;;;4984704;28;19920;-89
2022/01/16 00:06:34;;;;;;;;;;;2.90;91.80;;;;;;4987372;28;19932;-89
2022/01/16 00:09:00;;;;;;;;;;;2.90;91.90;;;;;;4990275;28;19940;-89
2022/01/16 00:11:28;;;;;;;;;;;2.90;91.90;;;;;;4982129;28;20286;-89
2022/01/16 00:13:55;;;;;;;;;;;2.90;91.90;;;;;;4994806;28;20020;-89
2022/01/16 00:16:22;;;;;;;;;;;2.90;91.90;;;;;;4960641;28;19913;-89
2022/01/16 00:18:49;;;;;;;;;;;2.90;91.90;;;;;;4984411;28;20128;-89
2022/01/16 00:21:17;;;;;;;;;;;2.90;91.90;;;;;;4970440;28;19921;-89
2022/01/16 00:23:44;;;;;;;;;;;2.90;91.90;;;;;;4988456;28;19921;-89
2022/01/16 00:26:12;;;;;;;;;;;2.80;91.90;;;;;;4987110;28;20371;-89
2022/01/16 00:28:39;;;;;;;;;;;2.80;92.00;;;;;;4987820;28;20099;-89
2022/01/16 00:31:06;;;;;;;;;;;2.90;92.00;;;;;;4981805;28;20366;-88
2022/01/16 00:33:33;;;;;;;;;;;2.80;92.00;;;;;;4983110;28;19943;-88
2022/01/16 00:35:59;;;;;;;;;;;2.80;92.10;;;;;;4982136;28;19924;-88
2022/01/16 00:38:26;;;;;;;;;;;2.80;92.20;;;;;;4983113;28;19922;-88
2022/01/16 00:40:53;;;;;;;;;;;2.90;92.40;;;;;;4979692;28;19920;-88
2022/01/16 00:43:20;;;;;;;;;;;2.90;92.50;;;;;;4988917;28;19914;-88
2022/01/16 00:45:47;;;;;;;;;;;2.90;92.70;;;;;;4987144;28;20330;-88
2022/01/16 00:48:14;;;;;;;;;;;3.00;92.80;;;;;;4973919;28;19921;-88
2022/01/16 00:50:41;;;;;;;;;;;3.10;92.90;;;;;;4979864;28;19917;-88
2022/01/16 00:53:08;;;;;;;;;;;3.10;92.90;;;;;;4996880;28;19921;-88
2022/01/16 00:55:38;;;;;;;;;;;3.20;93.00;;;;;;4981227;28;19924;-88
2022/01/16 00:58:04;;;;;;;;;;;3.20;93.00;;;;;;4966499;28;19921;-88
2022/01/16 01:00:32;;;;;;;;;;;3.20;93.00;;;;;;4989484;28;19914;-88
2022/01/16 01:03:02;;;;;;;;;;;3.20;93.00;;;;;;4976889;28;19913;-89
2022/01/16 01:05:29;;;;;;;;;;;3.30;93.00;;;;;;4980444;28;19924;-89
2022/01/16 01:07:56;;;;;;;;;;;3.30;93.10;;;;;;4978114;28;19925;-89
2022/01/16 01:10:29;;;;;;;;;;;3.30;93.10;;;;;;4978110;28;20291;-88
2022/01/16 01:13:07;;;;;;;;;;;3.30;93.10;;;;;;4987429;28;19914;-88
2022/01/16 01:15:41;;;;;;;;;;;3.30;93.20;;;;;;4991629;28;20329;-88
2022/01/16 01:18:09;;;;;;;;;;;3.40;93.30;;;;;;4982141;28;20221;-88
2022/01/16 01:20:36;;;;;;;;;;;3.40;93.40;;;;;;4989034;28;20095;-88
2022/01/16 01:23:03;;;;;;;;;;;3.50;93.50;;;;;;4986290;28;20285;-88
2022/01/16 01:25:30;;;;;;;;;;;3.50;93.50;;;;;;4981967;28;19914;-88
2022/01/16 01:27:57;;;;;;;;;;;3.50;93.60;;;;;;4987388;28;20427;-88
2022/01/16 01:30:24;;;;;;;;;;;3.50;93.70;;;;;;4992693;28;19920;-88
2022/01/16 01:32:54;;;;;;;;;;;3.70;93.80;;;;;;4984115;28;19944;-88
2022/01/16 01:35:22;;;;;;;;;;;3.70;93.90;;;;;;4969211;28;20325;-88
2022/01/16 01:37:49;;;;;;;;;;;3.80;94.00;;;;;;4985132;28;20257;-88
2022/01/16 01:40:17;;;;;;;;;;;3.80;94.00;;;;;;4995628;28;19920;-88
2022/01/16 01:51:08;;;;;;;;;;;4.10;94.30;;;;;;4987231;28;19924;-88
2022/01/16 01:53:35;;;;;;;;;;;4.10;94.30;;;;;;4984386;28;20263;-89
2022/01/16 01:56:03;;;;;;;;;;;4.20;94.40;;;;;;5003769;28;19944;-88
2022/01/16 01:58:30;;;;;;;;;;;4.20;94.40;;;;;;4986977;28;19924;-88
2022/01/16 02:00:57;;;;;;;;;;;4.30;94.40;;;;;;5001084;28;19914;-85
2022/01/16 02:05:53;;;;;;;;;;;4.40;94.50;;;;;;4988488;28;19914;-85
2022/01/16 02:08:20;;;;;;;;;;;4.50;94.50;;;;;;4981269;28;19918;-85
2022/01/16 02:10:47;;;;;;;;;;;4.50;94.60;;;;;;4988402;28;19917;-85
2022/01/16 02:13:28;;;;;;;;;;;4.50;94.60;;;;;;4991735;28;20379;-84
2022/01/16 02:34:37;;;;;;;;;;;4.80;94.80;;;;;;4993909;28;19914;-85
2022/01/16 02:37:08;;;;;;;;;;;4.80;94.90;;;;;;4980659;28;20386;-85
2022/01/16 02:39:36;;;;;;;;;;;4.90;94.90;;;;;;4998566;28;20396;-85
2022/01/16 02:42:03;;;;;;;;;;;4.90;94.90;;;;;;4983572;28;19920;-85
2022/01/16 02:44:35;;;;;;;;;;;4.90;94.90;;;;;;4974595;28;19914;-84
2022/01/16 02:47:02;;;;;;;;;;;5.00;95.00;;;;;;4991296;28;20430;-85
2022/01/16 02:49:30;;;;;;;;;;;5.00;95.00;;;;;;4995363;28;19923;-85
2022/01/16 02:51:59;;;;;;;;;;;5.00;95.10;;;;;;4985932;28;19922;-85
2022/01/16 02:54:30;;;;;;;;;;;5.10;95.10;;;;;;4984058;28;20302;-85
2022/01/16 02:56:57;;;;;;;;;;;5.10;95.10;;;;;;4986290;28;19918;-84
2022/01/16 02:59:24;;;;;;;;;;;5.10;95.10;;;;;;5008664;28;19939;-85
2022/01/16 03:01:51;;;;;;;;;;;5.20;95.20;;;;;;4986370;28;20379;-85
2022/01/16 03:04:18;;;;;;;;;;;5.20;95.20;;;;;;4990973;28;20649;-85
2022/01/16 03:06:45;;;;;;;;;;;5.20;95.20;;;;;;4982564;28;19921;-85
2022/01/16 03:09:12;;;;;;;;;;;5.20;95.20;;;;;;4992594;28;19917;-85
2022/01/16 03:11:45;;;;;;;;;;;5.20;95.20;;;;;;4962557;28;20114;-85
2022/01/16 03:14:13;;;;;;;;;;;5.30;95.20;;;;;;4991409;28;19916;-85
2022/01/16 03:16:43;;;;;;;;;;;5.30;95.20;;;;;;4990480;28;20088;-85
2022/01/16 03:21:57;;;;;;;;;;;5.40;95.20;;;;;;4995784;28;19924;-85
2022/01/16 03:24:26;;;;;;;;;;;5.30;95.20;;;;;;4992715;28;20160;-85
2022/01/16 03:26:57;;;;;;;;;;;5.40;95.20;;;;;;4985280;28;20263;-85
2022/01/16 03:29:24;;;;;;;;;;;5.40;95.20;;;;;;4993668;28;19932;-85
2022/01/16 03:31:51;;;;;;;;;;;5.40;95.20;;;;;;4979383;28;20497;-85
2022/01/16 03:34:18;;;;;;;;;;;5.40;95.20;;;;;;4988228;28;19924;-85
2022/01/16 03:36:45;;;;;;;;;;;5.40;95.20;;;;;;5006481;28;20136;-84
2022/01/16 03:39:12;;;;;;;;;;;5.50;95.20;;;;;;4983062;28;20312;-85
2022/01/16 03:41:39;;;;;;;;;;;5.50;95.20;;;;;;4968625;28;19935;-85
2022/01/16 03:44:06;;;;;;;;;;;5.50;95.20;;;;;;5003436;28;19924;-85
2022/01/16 03:46:34;;;;;;;;;;;5.50;95.20;;;;;;4979464;28;20298;-85
2022/01/16 03:49:03;;;;;;;;;;;5.60;95.30;;;;;;4993498;28;19928;-85
2022/01/16 03:51:30;;;;;;;;;;;5.60;95.30;;;;;;4991322;28;19914;-85
2022/01/16 03:53:57;;;;;;;;;;;5.60;95.30;;;;;;4979336;28;19927;-85
2022/01/16 03:56:24;;;;;;;;;;;5.60;95.30;;;;;;4985307;28;20370;-84
2022/01/16 03:58:51;;;;;;;;;;;5.60;95.20;;;;;;4984836;28;19928;-85
2022/01/16 04:01:18;;;;;;;;;;;5.60;95.20;;;;;;4989874;28;20393;-85
2022/01/16 04:03:45;;;;;;;;;;;5.60;95.60;;;;;;4985903;28;20390;-85
2022/01/16 04:06:12;;;;;;;;;;;5.70;95.30;;;;;;4988490;28;19913;-85
2022/01/16 04:08:39;;;;;;;;;;;5.70;95.20;;;;;;4990306;28;20041;-84
2022/01/16 04:11:06;;;;;;;;;;;5.70;95.20;;;;;;4973515;28;19921;-84
2022/01/16 04:13:32;;;;;;;;;;;5.70;95.20;;;;;;4979820;28;20097;-85
2022/01/16 04:15:59;;;;;;;;;;;5.70;95.20;;;;;;4985496;28;20025;-84
2022/01/16 04:18:26;;;;;;;;;;;5.70;95.20;;;;;;4981095;28;19913;-84
2022/01/16 04:20:53;;;;;;;;;;;5.70;95.20;;;;;;5004886;28;20107;-84
2022/01/16 04:23:20;;;;;;;;;;;5.70;95.20;;;;;;4984209;28;20417;-84
2022/01/16 04:25:47;;;;;;;;;;;5.70;95.20;;;;;;4983451;28;19940;-85
2022/01/16 04:28:14;;;;;;;;;;;5.70;95.20;;;;;;4987132;28;19913;-85
2022/01/16 04:30:41;;;;;;;;;;;5.70;95.20;;;;;;4980126;28;20319;-85
2022/01/16 04:33:08;;;;;;;;;;;5.70;95.20;;;;;;4990300;28;20175;-84
2022/01/16 04:35:34;;;;;;;;;;;5.70;95.20;;;;;;5003915;28;19945;-84
2022/01/16 04:38:01;;;;;;;;;;;5.70;95.20;;;;;;4993153;28;19922;-84
2022/01/16 04:40:28;;;;;;;;;;;5.70;95.10;;;;;;4975335;28;19922;-84
2022/01/16 04:45:40;;;;;;;;;;;5.70;95.10;;;;;;4982791;28;20428;-84
2022/01/16 04:48:07;;;;;;;;;;;5.70;95.10;;;;;;4989696;28;19920;-84
2022/01/16 04:50:34;;;;;;;;;;;5.70;95.10;;;;;;4980404;28;20456;-84
2022/01/16 04:53:01;;;;;;;;;;;5.70;94.90;;;;;;4989829;28;19914;-84
2022/01/16 04:55:28;;;;;;;;;;;5.70;95.00;;;;;;4974651;28;19922;-84
2022/01/16 04:57:55;;;;;;;;;;;5.70;95.10;;;;;;4996716;28;19921;-84
2022/01/16 05:00:22;;;;;;;;;;;5.70;95.00;;;;;;4988979;28;19913;-84
2022/01/16 05:02:48;;;;;;;;;;;5.70;95.10;;;;;;4987967;28;20099;-84
2022/01/16 05:05:15;;;;;;;;;;;5.70;95.00;;;;;;4985419;28;20020;-84
2022/01/16 05:07:42;;;;;;;;;;;5.70;95.00;;;;;;4995621;28;19914;-84
2022/01/16 05:10:10;;;;;;;;;;;5.70;95.00;;;;;;4990856;28;19922;-84
2022/01/16 05:12:39;;;;;;;;;;;5.70;95.00;;;;;;4972569;28;20241;-85
2022/01/16 05:17:52;;;;;;;;;;;5.70;95.00;;;;;;4986360;28;19920;-84
2022/01/16 05:20:19;;;;;;;;;;;5.70;95.00;;;;;;4979889;28;19964;-84
2022/01/16 05:22:46;;;;;;;;;;;5.70;94.90;;;;;;5011067;28;20099;-84
2022/01/16 05:25:15;;;;;;;;;;;5.70;94.90;;;;;;4991417;28;19924;-84
2022/01/16 05:27:42;;;;;;;;;;;5.70;94.90;;;;;;4980161;28;20182;-84
2022/01/16 05:30:09;;;;;;;;;;;5.70;94.80;;;;;;4997723;28;20251;-84
2022/01/16 05:32:36;;;;;;;;;;;5.60;94.80;;;;;;4977592;28;19913;-84
2022/01/16 05:35:04;;;;;;;;;;;5.60;94.80;;;;;;4986313;28;19913;-84
2022/01/16 05:37:30;;;;;;;;;;;5.60;94.80;;;;;;4973889;28;19934;-84
2022/01/16 05:39:57;;;;;;;;;;;5.60;94.90;;;;;;4987829;28;20397;-84
2022/01/16 05:42:24;;;;;;;;;;;5.60;94.90;;;;;;4986966;28;19928;-84
2022/01/16 05:44:51;;;;;;;;;;;5.60;94.90;;;;;;4978709;28;20193;-84
2022/01/16 05:47:18;;;;;;;;;;;5.60;94.80;;;;;;4977600;28;20367;-85
2022/01/16 05:49:45;;;;;;;;;;;5.60;94.80;;;;;;4990470;28;20150;-84
2022/01/16 05:52:12;;;;;;;;;;;5.60;94.80;;;;;;4997379;28;20301;-84
2022/01/16 05:54:39;;;;;;;;;;;5.60;94.80;;;;;;4988227;28;20022;-84
2022/01/16 05:57:06;;;;;;;;;;;5.60;94.80;;;;;;4985336;28;19914;-84
2022/01/16 05:59:33;;;;;;;;;;;5.60;94.90;;;;;;4970487;28;19922;-84
2022/01/16 06:02:00;;;;;;;;;;;5.60;94.80;;;;;;4981568;28;19924;-84
2022/01/16 06:04:27;;;;;;;;;;;5.60;94.90;;;;;;4975955;28;19914;-84
2022/01/16 06:06:54;;;;;;;;;;;5.60;94.90;;;;;;4987255;28;19914;-84
2022/01/16 06:09:21;;;;;;;;;;;5.60;94.90;;;;;;4975825;28;19926;-84
2022/01/16 06:11:48;;;;;;;;;;;5.60;94.90;;;;;;4987304;28;19914;-84
2022/01/16 06:14:15;;;;;;;;;;;5.60;94.90;;;;;;4968070;28;20393;-84
2022/01/16 06:16:41;;;;;;;;;;;5.60;94.90;;;;;;4974480;28;20448;-84
2022/01/16 06:19:08;;;;;;;;;;;5.60;95.00;;;;;;4980951;28;19928;-84
2022/01/16 06:21:35;;;;;;;;;;;5.60;95.00;;;;;;4989935;28;19944;-84
2022/01/16 06:24:03;;;;;;;;;;;5.60;94.90;;;;;;4980828;28;20366;-84
2022/01/16 06:26:31;;;;;;;;;;;5.60;95.00;;;;;;4989912;28;20222;-84
2022/01/16 06:28:57;;;;;;;;;;;5.60;95.00;;;;;;4997565;28;19922;-84
2022/01/16 06:31:25;;;;;;;;;;;5.60;94.90;;;;;;4977650;28;20325;-84
2022/01/16 06:33:51;;;;;;;;;;;5.60;94.90;;;;;;4989784;28;19945;-84
2022/01/16 06:36:18;;;;;;;;;;;5.60;94.90;;;;;;4979563;28;19925;-84
2022/01/16 06:38:46;;;;;;;;;;;5.60;94.80;;;;;;4982267;28;20444;-84
2022/01/16 06:41:13;;;;;;;;;;;5.60;94.80;;;;;;4980529;28;19918;-84
2022/01/16 06:43:40;;;;;;;;;;;5.70;95.00;;;;;;4992047;28;20538;-83
2022/01/16 06:46:07;;;;;;;;;;;5.70;95.00;;;;;;5011416;28;19917;-84
2022/01/16 06:48:33;;;;;;;;;;;5.60;95.00;;;;;;4974170;28;20122;-84
2022/01/16 06:51:01;;;;;;;;;;;5.60;95.00;;;;;;5010488;28;19924;-84
2022/01/16 06:53:27;;;;;;;;;;;5.70;95.00;;;;;;5006557;28;19961;-84
2022/01/16 06:55:54;;;;;;;;;;;5.70;95.00;;;;;;4975197;28;19921;-84
2022/01/16 06:58:21;;;;;;;;;;;5.70;95.00;;;;;;4991351;28;19917;-84
2022/01/16 07:00:48;;;;;;;;;;;5.70;95.10;;;;;;4991778;28;19917;-84
2022/01/16 07:03:15;;;;;;;;;;;5.70;95.00;;;;;;4977793;28;20111;-84
2022/01/16 07:05:42;;;;;;;;;;;5.70;95.00;;;;;;4990358;28;19913;-84
2022/01/16 07:08:09;;;;;;;;;;;5.70;95.10;;;;;;5002088;28;19913;-84
2022/01/16 07:10:36;;;;;;;;;;;5.80;95.10;;;;;;4984897;28;20000;-84
2022/01/16 07:13:03;;;;;;;;;;;5.80;95.20;;;;;;4988863;28;19914;-84
2022/01/16 07:15:30;;;;;;;;;;;5.80;95.20;;;;;;4991445;28;19924;-84
2022/01/16 07:17:57;;;;;;;;;;;5.80;95.20;;;;;;4986471;28;20421;-84
2022/01/16 07:20:24;;;;;;;;;;;5.80;95.10;;;;;;4986678;28;19918;-84
2022/01/16 07:22:51;;;;;;;;;;;5.80;95.10;;;;;;5000759;28;19928;-84
2022/01/16 07:25:18;;;;;;;;;;;5.80;95.10;;;;;;4985638;28;19920;-85
2022/01/16 07:27:45;;;;;;;;;;;5.90;95.20;;;;;;4987978;28;20448;-84
2022/01/16 07:30:11;;;;;;;;;;;5.90;95.20;;;;;;5011493;28;19928;-84
2022/01/16 07:32:39;;;;;;;;;;;5.90;95.30;;;;;;4965570;28;20133;-84
2022/01/16 07:35:06;;;;;;;;;;;5.90;95.30;;;;;;4984522;28;20362;-84
2022/01/16 07:37:33;;;;;;;;;;;5.90;95.30;;;;;;4989246;28;20345;-84
2022/01/16 07:40:00;;;;;;;;;;;6.00;95.40;;;;;;4994664;28;19920;-84
2022/01/16 07:42:27;;;;;;;;;;;6.00;95.30;;;;;;4968915;28;19917;-84
2022/01/16 07:44:54;;;;;;;;;;;6.00;95.40;;;;;;4993553;28;19917;-84
2022/01/16 07:47:20;;;;;;;;;;;6.00;95.40;;;;;;4989782;28;19920;-84
2022/01/16 07:49:47;;;;;;;;;;;6.00;95.40;;;;;;4980174;28;19920;-85
2022/01/16 07:52:14;;;;;;;;;;;6.00;95.40;;;;;;4988799;28;20229;-85
2022/01/16 07:54:41;;;;;;;;;;;6.10;95.50;;;;;;4978002;28;20190;-84
2022/01/16 07:57:08;;;;;;;;;;;6.10;95.50;;;;;;4986572;28;19921;-84
2022/01/16 07:59:36;;;;;;;;;;;6.10;95.40;;;;;;5001424;28;20099;-84
2022/01/16 08:02:03;;;;;;;;;;;6.10;95.40;;;;;;4993702;28;19918;-85
2022/01/16 08:04:30;;;;;;;;;;;6.10;95.40;;;;;;4978935;28;20574;-85
2022/01/16 08:06:57;;;;;;;;;;;6.20;95.50;;;;;;4981437;28;20395;-85
2022/01/16 08:09:24;;;;;;;;;;;6.20;95.50;;;;;;4991546;28;19922;-84
2022/01/16 08:11:51;;;;;;;;;;;6.20;95.30;;;;;;4987444;28;20439;-83
2022/01/16 08:14:18;;;;;;;;;;;6.20;95.20;;;;;;4979449;28;19944;-84
2022/01/16 08:16:44;;;;;;;;;;;6.20;95.00;;;;;;4993436;28;20103;-84
2022/01/16 08:19:11;;;;;;;;;;;6.30;95.10;;;;;;5007165;28;19936;-85
2022/01/16 08:21:38;;;;;;;;;;;6.30;95.10;;;;;;4981814;28;20391;-84
2022/01/16 08:24:05;;;;;;;;;;;6.20;95.00;;;;;;4983167;28;19922;-84
2022/01/16 08:26:33;;;;;;;;;;;6.20;94.90;;;;;;4992416;28;19924;-84
2022/01/16 08:29:00;;;;;;;;;;;6.20;95.10;;;;;;4973357;28;20248;-85
2022/01/16 08:31:27;;;;;;;;;;;6.20;95.10;;;;;;4991598;28;19928;-84
2022/01/16 08:33:54;;;;;;;;;;;6.20;95.10;;;;;;4974568;28;19917;-84
2022/01/16 08:36:21;;;;;;;;;;;6.30;95.10;;;;;;4977049;28;19931;-84
2022/01/16 08:38:48;;;;;;;;;;;6.30;95.20;;;;;;4991201;28;19913;-84
2022/01/16 08:41:15;;;;;;;;;;;6.30;95.20;;;;;;5000627;28;20286;-83
2022/01/16 08:43:42;;;;;;;;;;;6.30;95.00;;;;;;4991629;28;20109;-84
2022/01/16 08:46:09;;;;;;;;;;;6.30;94.80;;;;;;4982386;28;20367;-85
2022/01/16 08:48:35;;;;;;;;;;;6.30;94.90;;;;;;4994211;28;19928;-83
2022/01/16 08:51:02;;;;;;;;;;;6.30;94.90;;;;;;4991478;28;20128;-84
2022/01/16 08:53:29;;;;;;;;;;;6.30;95.00;;;;;;4979861;28;20286;-84
2022/01/16 08:55:56;;;;;;;;;;;6.40;95.00;;;;;;5000004;28;20107;-84
2022/01/16 08:58:23;;;;;;;;;;;6.30;95.00;;;;;;4981346;28;19920;-82
2022/01/16 09:00:50;;;;;;;;;;;6.40;95.00;;;;;;4982031;28;20363;-84
2022/01/16 09:03:21;;;;;;;;;;;6.40;94.90;;;;;;4989051;28;19917;-84
2022/01/16 09:05:48;;;;;;;;;;;6.40;95.00;;;;;;4992248;28;19917;-84
2022/01/16 09:08:16;;;;;;;;;;;6.40;95.00;;;;;;4985442;28;20290;-82
2022/01/16 09:10:43;;;;;;;;;;;6.40;95.10;;;;;;4987698;28;20371;-85
2022/01/16 09:13:12;;;;;;;;;;;6.50;95.20;;;;;;4989188;28;20298;-84
2022/01/16 09:15:39;;;;;;;;;;;6.50;95.10;;;;;;4990236;28;20203;-84
2022/01/16 09:18:06;;;;;;;;;;;6.50;95.20;;;;;;4989764;28;19924;-83
2022/01/16 09:20:33;;;;;;;;;;;6.50;95.20;;;;;;4995111;28;19921;-84
2022/01/16 09:23:00;;;;;;;;;;;6.50;95.10;;;;;;4976947;28;20336;-84
2022/01/16 09:25:27;;;;;;;;;;;6.50;95.00;;;;;;4984212;28;20375;-85
2022/01/16 09:27:54;;;;;;;;;;;6.50;95.10;;;;;;4985597;28;20038;-84
2022/01/16 09:30:22;;;;;;;;;;;6.60;95.00;;;;;;4985709;28;19921;-84
2022/01/16 09:32:49;;;;;;;;;;;6.60;95.10;;;;;;4977715;28;19922;-85
2022/01/16 09:35:16;;;;;;;;;;;6.60;95.10;;;;;;5005255;28;19921;-85
2022/01/16 09:37:45;;;;;;;;;;;6.60;95.20;;;;;;4982641;28;19928;-85
2022/01/16 09:40:13;;;;;;;;;;;6.60;95.20;;;;;;5002014;28;19920;-84
2022/01/16 09:42:40;;;;;;;;;;;6.70;95.40;;;;;;4989959;28;19924;-85
2022/01/16 09:45:08;;;;;;;;;;;6.70;95.10;;;;;;4982630;28;20599;-83
2022/01/16 09:47:35;;;;;;;;;;;6.70;95.00;;;;;;4977076;28;19914;-83
2022/01/16 09:50:04;;;;;;;;;;;6.70;95.10;;;;;;4992357;28;20029;-84
2022/01/16 09:52:36;;;;;;;;;;;6.70;95.20;;;;;;4994650;28;19928;-84
2022/01/16 09:55:04;;;;;;;;;;;6.70;95.20;;;;;;4989533;28;20015;-84
2022/01/16 09:57:31;;;;;;;;;;;6.80;95.20;;;;;;5004443;28;20122;-84
2022/01/16 09:59:58;;;;;;;;;;;6.70;95.20;;;;;;4988208;28;20505;-85
2022/01/16 10:02:25;;;;;;;;;;;6.80;95.30;;;;;;5000763;28;19909;-85
2022/01/16 10:04:53;;;;;;;;;;;6.80;95.10;;;;;;4984408;28;20105;-85
2022/01/16 10:07:20;;;;;;;;;;;6.80;95.20;;;;;;4996282;28;19918;-84
2022/01/16 10:10:05;;;;;;;;;;;6.80;95.20;;;;;;4981356;28;20121;-84
2022/01/16 10:12:34;;;;;;;;;;;6.80;95.20;;;;;;4989143;28;19917;-84
2022/01/16 10:15:19;;;;;;;;;;;6.80;95.20;;;;;;4991544;28;20194;-84
2022/01/16 10:17:47;;;;;;;;;;;6.80;95.10;;;;;;4986561;28;20420;-84
2022/01/16 10:20:16;;;;;;;;;;;6.80;95.40;;;;;;4988868;28;19914;-84
2022/01/16 10:22:44;;;;;;;;;;;6.80;95.20;;;;;;4996144;28;19918;-84
2022/01/16 10:25:12;;;;;;;;;;;6.80;95.10;;;;;;4983825;28;19918;-85
2022/01/16 10:27:41;;;;;;;;;;;6.80;95.20;;;;;;4990413;28;19917;-84
2022/01/16 10:30:09;;;;;;;;;;;6.80;95.10;;;;;;4999894;28;20300;-84
2022/01/16 10:32:37;;;;;;;;;;;6.80;95.10;;;;;;4991250;28;19932;-84
2022/01/16 10:35:15;;;;;;;;;;;6.80;95.20;;;;;;4983363;28;19943;-84
2022/01/16 10:37:43;;;;;;;;;;;6.90;95.30;;;;;;4988995;28;19928;-84
2022/01/16 10:40:14;;;;;;;;;;;6.80;95.10;;;;;;4977996;28;20408;-84
2022/01/16 10:42:47;;;;;;;;;;;6.90;95.00;;;;;;4987093;28;20274;-84
2022/01/16 10:45:14;;;;;;;;;;;6.80;95.00;;;;;;5001230;28;19920;-85
2022/01/16 10:47:42;;;;;;;;;;;6.90;95.10;;;;;;4985805;28;19920;-84
2022/01/16 10:50:17;;;;;;;;;;;6.90;95.30;;;;;;4978867;28;20594;-85
2022/01/16 10:52:57;;;;;;;;;;;6.90;95.20;;;;;;4982660;28;19927;-85
2022/01/16 10:55:33;;;;;;;;;;;6.90;95.40;;;;;;4995127;28;19920;-84
2022/01/16 10:58:01;;;;;;;;;;;6.90;95.40;;;;;;5001955;28;19935;-84
2022/01/16 11:00:28;;;;;;;;;;;6.90;95.40;;;;;;4989436;28;19922;-84
2022/01/16 11:02:57;;;;;;;;;;;7.00;95.30;;;;;;4972132;28;20519;-84
2022/01/16 11:05:26;;;;;;;;;;;7.00;94.90;;;;;;4993095;28;19917;-84
2022/01/16 11:08:12;;;;;;;;;;;7.00;95.00;;;;;;4979822;28;20310;-85
2022/01/16 11:10:39;;;;;;;;;;;6.90;95.00;;;;;;4990969;28;19922;-84
2022/01/16 11:13:16;;;;;;;;;;;7.00;94.80;;;;;;4994217;28;19956;-83
2022/01/16 11:15:45;;;;;;;;;;;6.90;94.70;;;;;;4985560;28;19924;-84
2022/01/16 11:18:12;;;;;;;;;;;6.90;94.80;;;;;;4991549;28;19928;-85
2022/01/16 11:20:40;;;;;;;;;;;7.00;95.10;;;;;;4988149;28;19914;-84
2022/01/16 11:25:43;;;;;;;;;;;7.00;95.00;;;;;;4996905;28;20253;-84
2022/01/16 11:28:13;;;;;;;;;;;7.10;95.00;;;;;;4985275;28;19932;-85
2022/01/16 11:30:46;;;;;;;;;;;7.10;95.10;;;;;;4984998;28;19988;-84
2022/01/16 11:33:13;;;;;;;;;;;7.10;95.10;;;;;;5006776;28;19921;-85
2022/01/16 11:35:43;;;;;;;;;;;7.20;95.00;;;;;;4996901;28;20602;-83
2022/01/16 11:38:10;;;;;;;;;;;7.10;95.00;;;;;;4981305;28;19925;-83
2022/01/16 11:40:42;;;;;;;;;;;7.20;94.90;;;;;;4993896;28;20363;-85
2022/01/16 11:43:36;;;;;;;;;;;7.20;94.90;;;;;;4969698;28;20516;-84
2022/01/16 11:46:13;;;;;;;;;;;7.20;95.00;;;;;;4980205;28;20107;-84
2022/01/16 11:48:41;;;;;;;;;;;7.20;95.00;;;;;;4988810;28;19918;-84
2022/01/16 11:51:40;;;;;;;;;;;7.20;94.50;;;;;;5009973;28;20000;-84
2022/01/16 11:54:09;;;;;;;;;;;7.20;94.10;;;;;;4955749;28;19922;-84
2022/01/16 11:56:42;;;;;;;;;;;7.20;94.50;;;;;;4998869;28;20138;-84
2022/01/16 11:59:09;;;;;;;;;;;7.20;94.70;;;;;;4985229;28;20246;-84
2022/01/16 12:01:48;;;;;;;;;;;7.20;94.80;;;;;;4997628;28;20558;-84
2022/01/16 12:04:30;;;;;;;;;;;7.20;94.40;;;;;;5001857;28;19914;-85
2022/01/16 12:07:12;;;;;;;;;;;7.20;94.40;;;;;;4994275;28;20227;-84
2022/01/16 12:12:08;;;;;;;;;;;7.30;94.60;;;;;;4991726;28;20105;-84
2022/01/16 12:14:57;;;;;;;;;;;7.30;94.70;;;;;;4978494;28;19921;-84
2022/01/16 12:17:44;;;;;;;;;;;7.40;94.70;;;;;;4961473;28;19953;-85
2022/01/16 12:20:11;;;;;;;;;;;7.40;94.70;;;;;;4984472;28;20276;-84
2022/01/16 12:22:53;;;;;;;;;;;7.40;94.70;;;;;;4981930;28;19914;-83
2022/01/16 12:25:21;;;;;;;;;;;7.40;94.70;;;;;;4972579;28;19914;-83
2022/01/16 12:27:48;;;;;;;;;;;7.40;94.70;;;;;;4988366;28;20492;-85
2022/01/16 12:30:15;;;;;;;;;;;7.40;94.80;;;;;;4978017;28;19914;-85
2022/01/16 12:32:51;;;;;;;;;;;7.40;94.70;;;;;;4986429;28;20579;-84
2022/01/16 12:35:37;;;;;;;;;;;7.40;94.70;;;;;;4996449;28;19917;-84
2022/01/16 12:38:08;;;;;;;;;;;7.50;94.80;;;;;;4980889;28;19929;-84
2022/01/16 12:40:37;;;;;;;;;;;7.40;94.80;;;;;;4981592;28;19944;-85
2022/01/16 12:43:09;;;;;;;;;;;7.40;94.70;;;;;;4996774;28;19921;-84
2022/01/16 12:45:39;;;;;;;;;;;7.40;94.80;;;;;;4977561;28;20378;-84
2022/01/16 12:48:07;;;;;;;;;;;7.40;94.80;;;;;;4982256;28;19920;-85
2022/01/16 12:50:34;;;;;;;;;;;7.40;94.80;;;;;;4982656;28;19921;-85
2022/01/16 12:53:01;;;;;;;;;;;7.40;94.70;;;;;;4983203;28;19917;-84
2022/01/16 12:55:29;;;;;;;;;;;7.40;94.80;;;;;;4975990;28;19918;-85
2022/01/16 12:58:15;;;;;;;;;;;7.40;94.70;;;;;;4991148;28;19928;-84
2022/01/16 13:00:58;;;;;;;;;;;7.40;94.70;;;;;;4992635;28;19944;-85
2022/01/16 13:03:26;;;;;;;;;;;7.40;94.40;;;;;;4976502;28;20365;-84
2022/01/16 13:06:12;;;;;;;;;;;7.30;94.60;;;;;;4986735;28;19920;-84
2022/01/16 13:08:58;;;;;;;;;;;7.30;94.50;;;;;;4987738;28;20478;-85
2022/01/16 13:11:26;;;;;;;;;;;7.30;94.70;;;;;;4981675;28;20422;-85
2022/01/16 13:13:53;;;;;;;;;;;7.30;94.80;;;;;;4993224;28;20121;-85
2022/01/16 13:16:22;;;;;;;;;;;7.30;94.70;;;;;;4987032;28;19914;-86
2022/01/16 13:19:07;;;;;;;;;;;7.30;94.80;;;;;;4983889;28;19988;-84
2022/01/16 13:21:43;;;;;;;;;;;7.30;94.70;;;;;;4972314;28;20472;-84
2022/01/16 13:24:22;;;;;;;;;;;7.30;94.70;;;;;;4990567;28;19913;-83
2022/01/16 13:26:49;;;;;;;;;;;7.30;94.10;;;;;;4984940;28;19917;-84
2022/01/16 13:29:18;;;;;;;;;;;7.30;94.20;;;;;;4994597;28;19918;-85
2022/01/16 13:31:45;;;;;;;;;;;7.20;94.20;;;;;;4984018;28;23646;-84
2022/01/16 13:34:13;;;;;;;;;;;7.20;94.20;;;;;;5001268;28;19925;-84
2022/01/16 13:36:51;;;;;;;;;;;7.20;94.20;;;;;;4978396;28;19929;-85
2022/01/16 13:39:32;;;;;;;;;;;7.20;94.30;;;;;;4991188;28;19917;-84
2022/01/16 13:42:19;;;;;;;;;;;7.20;94.50;;;;;;4980973;28;19914;-84
2022/01/16 13:44:46;;;;;;;;;;;7.20;94.60;;;;;;4988477;28;20146;-84
2022/01/16 13:47:17;;;;;;;;;;;7.20;94.70;;;;;;4997566;28;19940;-84
2022/01/16 13:49:48;;;;;;;;;;;7.20;94.60;;;;;;4977505;28;19921;-86
2022/01/16 13:52:23;;;;;;;;;;;7.20;94.70;;;;;;4985384;28;19936;-86
2022/01/16 13:55:02;;;;;;;;;;;7.20;94.70;;;;;;5000382;28;19926;-86
2022/01/16 13:57:29;;;;;;;;;;;7.20;94.70;;;;;;4980146;28;19934;-86
2022/01/16 13:59:59;;;;;;;;;;;7.30;94.70;;;;;;4998114;28;19924;-86
2022/01/16 14:02:26;;;;;;;;;;;7.20;94.70;;;;;;4990241;28;19921;-86
2022/01/16 14:04:53;;;;;;;;;;;7.30;94.50;;;;;;4983637;28;19920;-87
2022/01/16 14:07:21;;;;;;;;;;;7.30;94.70;;;;;;4994196;28;20224;-84
2022/01/16 14:09:52;;;;;;;;;;;7.30;94.60;;;;;;4982704;28;19917;-85
2022/01/16 14:12:19;;;;;;;;;;;7.30;94.60;;;;;;4983918;28;20455;-85
2022/01/16 14:14:48;;;;;;;;;;;7.30;94.40;;;;;;4983763;28;19922;-86
2022/01/16 14:22:13;;;;;;;;;;;7.30;94.30;;;;;;4989705;28;20114;-86
2022/01/16 14:24:40;;;;;;;;;;;7.40;94.30;;;;;;4992740;28;20281;-85
2022/01/16 14:27:09;;;;;;;;;;;7.40;94.30;;;;;;4986507;28;19921;-86
2022/01/16 14:29:46;;;;;;;;;;;7.30;94.50;;;;;;5002629;28;19909;-84
2022/01/16 14:32:13;;;;;;;;;;;7.40;94.60;;;;;;4994451;28;20499;-84
2022/01/16 14:34:41;;;;;;;;;;;7.40;94.80;;;;;;5000609;28;19918;-83
2022/01/16 14:37:09;;;;;;;;;;;7.40;94.80;;;;;;4975803;28;19936;-82
2022/01/16 14:39:36;;;;;;;;;;;7.50;94.80;;;;;;4995183;28;19913;-83
2022/01/16 14:42:04;;;;;;;;;;;7.50;94.80;;;;;;4989056;28;19920;-84
2022/01/16 14:44:32;;;;;;;;;;;7.50;94.90;;;;;;4991336;28;19913;-83
2022/01/16 14:47:00;;;;;;;;;;;7.50;94.90;;;;;;4996247;28;20263;-84
2022/01/16 14:49:27;;;;;;;;;;;7.50;94.90;;;;;;4994905;28;19917;-83
2022/01/16 14:51:54;;;;;;;;;;;7.50;95.00;;;;;;4978479;28;19914;-82
2022/01/16 14:54:22;;;;;;;;;;;7.60;95.00;;;;;;5001113;28;20517;-83
2022/01/16 14:56:48;;;;;;;;;;;7.50;94.80;;;;;;4995527;28;19917;-84
2022/01/16 14:59:15;;;;;;;;;;;7.50;94.80;;;;;;4991258;28;19922;-83
2022/01/16 15:01:43;;;;;;;;;;;7.50;94.60;;;;;;4990767;28;19909;-83
2022/01/16 15:04:11;;;;;;;;;;;7.50;94.50;;;;;;4996138;28;19914;-84
2022/01/16 15:06:39;;;;;;;;;;;7.50;94.50;;;;;;4994918;28;19917;-83
2022/01/16 15:09:06;;;;;;;;;;;7.50;94.60;;;;;;4986130;28;19922;-83
2022/01/16 15:11:33;;;;;;;;;;;7.50;94.60;;;;;;5000312;28;19923;-82
2022/01/16 15:14:01;;;;;;;;;;;7.50;94.70;;;;;;4990030;28;20264;-83
2022/01/16 15:16:30;;;;;;;;;;;7.50;94.50;;;;;;4999672;28;20538;-83
2022/01/16 15:18:58;;;;;;;;;;;7.50;94.60;;;;;;5000057;28;20377;-83
2022/01/16 15:21:36;;;;;;;;;;;7.50;94.70;;;;;;4982857;28;20135;-83
2022/01/16 15:24:04;;;;;;;;;;;7.50;94.70;;;;;;4978827;28;19914;-83
2022/01/16 15:26:31;;;;;;;;;;;7.50;94.70;;;;;;4999372;28;19913;-82
2022/01/16 15:28:58;;;;;;;;;;;7.50;94.80;;;;;;4980195;28;19913;-83